METAR Data
IDs: Format: Raw Decoded Include TAF

Data at: 0529 UTC 26 Sep 2018

KGGP 260515Z AUTO 27006KT 10SM -RA SCT015 BKN033 OVC110 20/20 A2991 RMK AO2
KGGP 260455Z AUTO 25008KT 10SM -RA SCT024 SCT050 OVC110 20/20 A2991 RMK AO2
KGGP 260435Z AUTO 24007KT 7SM RA SCT016 BKN050 OVC110 20/20 A2992 RMK AO2
KGGP 260415Z AUTO 26005KT 10SM DZ OVC016 20/20 A2991 RMK AO2
KGGP 260355Z AUTO 24004KT 10SM -RA BKN020 OVC033 21/20 A2991 RMK AO2
KGGP 260335Z AUTO 22005KT 10SM BKN018 OVC024 21/19 A2991 RMK AO2
KGGP 260315Z AUTO 25005KT 10SM OVC016 21/20 A2991 RMK AO2
KGGP 260255Z AUTO 29005KT 10SM SCT012 OVC016 21/19 A2991 RMK AO2 P0001
KGGP 260235Z AUTO 32004KT 10SM SCT012 SCT045 BKN055 21/20 A2991 RMK AO2
KGGP 260215Z AUTO 19003KT 10SM CLR 20/20 A2989 RMK AO2
KGGP 260155Z AUTO 20004KT 10SM CLR 21/20 A2989 RMK AO2 P0001
KGGP 260135Z AUTO 21006KT 10SM CLR 22/20 A2989 RMK AO2
KGGP 260115Z AUTO 20010KT 10SM CLR 22/21 A2987 RMK AO2
KGGP 260055Z AUTO 19009KT 10SM CLR 22/21 A2986 RMK AO2 P0001
KGGP 260035Z AUTO 19006KT 10SM CLR 22/21 A2986 RMK AO2 P0001
KGGP 260015Z AUTO 17006KT 10SM CLR 22/21 A2987 RMK AO2
KGGP 252355Z AUTO 18005KT 10SM CLR 22/21 A2989 RMK AO2 P0002
KGGP 252335Z AUTO 20005KT 10SM CLR 22/21 A2988 RMK AO2 P0001
KGGP 252315Z AUTO 19006KT 10SM CLR 23/21 A2988 RMK AO2 P0001
KGGP 252255Z AUTO 21006KT 10SM CLR 23/21 A2989 RMK AO2 P0001
KGGP 252235Z AUTO 21006KT 10SM CLR 23/21 A2988 RMK AO2 P0001
KGGP 252215Z AUTO 21010G16KT 10SM SCT016 SCT047 23/21 A2987 RMK AO2
KGGP 252155Z AUTO 21010KT 10SM SCT016 SCT028 BKN043 24/21 A2986 RMK AO2 P0002
KGGP 252135Z AUTO 20010KT 10SM SCT016 SCT020 BKN034 23/21 A2987 RMK AO2 P0001
KGGP 252115Z AUTO 21010KT 10SM SCT016 SCT023 BKN042 25/21 A2986 RMK AO2 P0001
KGGP 252055Z AUTO 21011KT 10SM SCT007 SCT011 BKN042 24/21 A2986 RMK AO2 P0001
KGGP 252035Z AUTO 19012KT 10SM BKN008 BKN021 OVC080 23/22 A2987 RMK AO2 P0001
KGGP 252015Z AUTO 20010G14KT 10SM SCT010 BKN016 OVC042 22/22 A2988 RMK AO2
KGGP 251955Z AUTO 18010KT 7SM RA SCT012 BKN016 OVC043 23/21 A2988 RMK AO2 P0002
KGGP 251935Z AUTO 19008KT 10SM OVC016 23/21 A2989 RMK AO2 P0001
KGGP 251915Z AUTO 18008KT 10SM SCT014 BKN033 BKN040 23/21 A2990 RMK AO2
KGGP 251855Z AUTO 18011KT 10SM SCT014 BKN042 23/21 A2991 RMK AO2 P0003
KGGP 251835Z AUTO 20006KT 10SM BKN042 22/20 A2993 RMK AO2 P0002
KGGP 251815Z AUTO 19007KT 10SM SCT110 22/20 A2994 RMK AO2 P0001
KGGP 251755Z AUTO 18008KT 10SM SCT110 22/20 A2994 RMK AO2 P0003
KGGP 251735Z AUTO 20007KT 10SM CLR 21/20 A2995 RMK AO2 P0002
KGGP 251715Z AUTO 23007KT 10SM -RA SCT033 SCT042 SCT049 21/19 A2996 RMK AO2 P0001
KGGP 251655Z AUTO 21010KT 10SM SCT032 SCT120 20/20 A2996 RMK AO2 P0004
KGGP 251635Z AUTO 20011KT 10SM SCT007 SCT070 BKN110 20/20 A2998 RMK AO2 P0003
KGGP 251615Z AUTO 23014G19KT 1SM +RA OVC007 20/20 A3000 RMK AO2 P0001
KGGP 251555Z AUTO 18005KT 7SM SCT007 BKN011 OVC020 21/21 A2998 RMK AO2
KGGP 251535Z AUTO 20004KT 10SM OVC017 21/21 A2997 RMK AO2
KGGP 251515Z AUTO 20005KT 10SM SCT008 OVC015 21/21 A2997 RMK AO2
KGGP 251455Z AUTO 18005KT 10SM SCT008 OVC013 21/21 A2996 RMK AO2
KGGP 251435Z AUTO 20005KT 10SM BKN007 OVC012 21/21 A2998 RMK AO2
KGGP 251415Z AUTO 19005KT 10SM BKN007 OVC012 21/21 A2996 RMK AO2
KGGP 251355Z AUTO 19006KT 10SM BKN007 OVC012 21/21 A2997 RMK AO2 P0001
KGGP 251335Z AUTO 19006KT 10SM BKN012 BKN019 OVC026 21/21 A2997 RMK AO2 P0001
KGGP 251315Z AUTO 20005KT 10SM BKN013 OVC020 21/21 A2997 RMK AO2 P0001
KGGP 251255Z AUTO 19005KT 10SM OVC011 21/21 A2996 RMK AO2 P0002
KGGP 251235Z AUTO 21005KT 10SM SCT009 OVC015 21/21 A2996 RMK AO2 P0002
KGGP 251215Z AUTO 19005KT 10SM OVC011 21/21 A2996 RMK AO2 P0001
KGGP 251155Z AUTO 19005KT 10SM OVC011 21/20 A2996 RMK AO2 P0004
KGGP 251135Z AUTO 18006KT 10SM OVC011 21/20 A2996 RMK AO2 P0003
KGGP 251115Z AUTO 18008KT 10SM BKN013 OVC020 21/20 A2996 RMK AO2 P0001
KGGP 251055Z AUTO 17007KT 10SM SCT013 BKN020 OVC026 20/20 A2995 RMK AO2 P0006
KGGP 251035Z AUTO 19005KT 7SM -RA SCT022 SCT029 OVC037 20/20 A2995 RMK AO2 P0004
KGGP 251015Z AUTO 20008G14KT 10SM -RA SCT022 BKN037 OVC045 21/20 A2995 RMK AO2 P0002
KGGP 250955Z AUTO 19005KT 10SM BKN024 BKN037 OVC070 20/20 A2995 RMK AO2 P0010
KGGP 250935Z AUTO 18007KT 10SM SCT008 BKN036 OVC080 20/20 A2994 RMK AO2 P0007
KGGP 250915Z AUTO 17009G14KT 5SM +RA BKN006 BKN018 OVC024 21/21 A2994 RMK AO2
KGGP 250850Z AUTO 19007KT 7SM OVC008 21/20 A2995 RMK AO2
KGGP 250835Z AUTO 18005KT 7SM OVC008 21/20 A2994 RMK AO2
KGGP 250815Z AUTO 17005KT 7SM BKN008 BKN025 OVC037 20/20 A2995 RMK AO2
KGGP 250755Z AUTO 17005KT 7SM -RA BKN008 OVC037 21/20 A2995 RMK AO2
KGGP 250735Z AUTO 18004KT 7SM OVC008 21/20 A2995 RMK AO2
KGGP 250715Z AUTO 18005KT 5SM -DZ BKN006 OVC011 21/20 A2996 RMK AO2
KGGP 250655Z AUTO 18005KT 7SM OVC008 20/20 A2996 RMK AO2
KGGP 250635Z AUTO 16004KT 7SM OVC008 20/20 A2996 RMK AO2
KGGP 250615Z AUTO 17003KT 7SM OVC008 20/20 A2997 RMK AO2
KGGP 250555Z AUTO 16004KT 10SM BKN008 BKN026 OVC044 20/20 A2996 RMK AO2
KGGP 250535Z AUTO 00000KT 10SM BKN008 BKN019 OVC044 20/20 A2996 RMK AO2
KGGP 250515Z AUTO 19003KT 10SM BKN012 BKN019 OVC041 20/20 A2997 RMK AO2
KGGP 250455Z AUTO 17005KT 10SM SCT009 SCT018 OVC041 20/20 A2997 RMK AO2
KGGP 250435Z AUTO 19003KT 10SM SCT009 OVC041 20/20 A2997 RMK AO2
KGGP 250415Z AUTO 19003KT 10SM BKN009 BKN022 OVC041 20/20 A2998 RMK AO2
KGGP 250355Z AUTO 19004KT 10SM BKN009 OVC022 20/20 A2998 RMK AO2
KGGP 250335Z AUTO 19005KT 10SM OVC011 20/20 A2998 RMK AO2
KGGP 250315Z AUTO 19004KT 10SM BKN008 OVC011 20/20 A2998 RMK AO2
KGGP 250255Z AUTO 19004KT 10SM OVC008 21/20 A2997 RMK AO2
KGGP 250235Z AUTO 17004KT 10SM OVC010 21/20 A2997 RMK AO2
KGGP 250215Z AUTO 17005KT 10SM OVC010 21/20 A2997 RMK AO2
KGGP 250155Z AUTO 16004KT 10SM OVC010 20/20 A2997 RMK AO2
KGGP 250135Z AUTO 15004KT 10SM OVC010 20/20 A2996 RMK AO2
KGGP 250115Z AUTO 14004KT 10SM OVC010 20/20 A2996 RMK AO2
KGGP 250055Z AUTO 13005KT 10SM OVC010 20/19 A2996 RMK AO2
KGGP 250035Z AUTO 13004KT 10SM OVC012 20/19 A2995 RMK AO2
KGGP 250015Z AUTO 13004KT 10SM OVC014 20/18 A2995 RMK AO2
KGGP 242355Z AUTO 13006KT 10SM OVC014 20/18 A2995 RMK AO2
KGGP 242335Z AUTO 13007KT 10SM OVC014 21/18 A2995 RMK AO2
KGGP 242315Z AUTO 14007KT 10SM OVC014 21/18 A2996 RMK AO2
KGGP 242255Z AUTO 14007KT 10SM OVC016 21/18 A2996 RMK AO2
KGGP 242235Z AUTO 14007KT 10SM OVC016 21/18 A2997 RMK AO2
KGGP 242215Z AUTO 15008KT 10SM OVC016 21/18 A2997 RMK AO2
KGGP 242155Z AUTO 14008KT 10SM OVC018 21/18 A2997 RMK AO2
KGGP 242135Z AUTO 16009KT 10SM OVC018 22/18 A2997 RMK AO2
KGGP 242115Z AUTO 13009KT 10SM BKN020 BKN065 OVC080 21/18 A2997 RMK AO2
KGGP 242055Z AUTO 14008KT 10SM BKN020 BKN065 OVC080 22/18 A2998 RMK AO2
KGGP 242035Z AUTO 15008KT 10SM OVC020 21/18 A2999 RMK AO2
KGGP 242015Z AUTO 15010KT 10SM OVC017 21/18 A2999 RMK AO2
KGGP 241955Z AUTO 13008KT 10SM OVC017 21/18 A2999 RMK AO2
KGGP 241935Z AUTO 12007KT 10SM OVC015 21/18 A3000 RMK AO2
KGGP 241915Z AUTO 12006KT 10SM OVC013 20/18 A3001 RMK AO2
KGGP 241855Z AUTO 12006KT 10SM OVC011 20/18 A3002 RMK AO2
KGGP 241835Z AUTO 12007KT 10SM OVC009 20/18 A3003 RMK AO2
KGGP 241815Z AUTO 11006KT 10SM OVC009 20/18 A3004 RMK AO2
KGGP 241755Z AUTO 12005KT 7SM OVC011 19/18 A3005 RMK AO2 P0003
KGGP 241735Z AUTO 13007KT 3SM -RA OVC011 18/17 A3006 RMK AO2